Kommunar, Russia
Current Conditions -  °F | °C
As of 1:30 AM on Monday 24 Nov 2014 (Local Time) from UNAA Reporting Station
Overcast Overcast  
Wind Chill: 15°   Ceiling: 7300
Heat Index: 27°   Visibility: 6mi
Dew Point: 12°   Wind: 13mph
Humidity: 55%   Direction: 200°SSW
Pressure: 29.71"   Gusts: NA
Location:  54.33°N, 89.28°E
Report Text: UNAA 231830Z 20006MPS 9999 SCT030CB OVC073 M03/M11 Q1006 NOSIGRMK QFE732 20190055
Loading
Personal Weather Stations






























Interactive Weather Map New forecast layout! Learn more

10-Day Weather Forecast

Advertisements
Track Severe Weather on mobile